CheckWX is a tool to help pilots better visualize weather data.  It is not intended as a substitute for an official pre-flight weather briefing.

16:05:58 UTC

KDEW METAR
Deer Park Airport
Deer Park, Washington, USA
Current

13 mins ago

KDEW 171553Z AUTO 20007KT 10SM FEW010 BKN014 OVC027 09/07 A2966 RMK AO2 SLP046 T00890067
Observed
Oct-17 @ 15:53 UTC
Wind
  • 200° at 7 KTS
Visibility
10 SM
Flight Rules
MVFR
Cloud Levels
  • Few at 1,000' AGL
  • Broken at 1,400' AGL
  • Overcast at 2,700' AGL
Temperature
C / 48°F
Dewpoint
C / 45°F
Humidity
87%
Altimeter
29.66" Hg
Pressure
1004.42 hPa
Previous

1 hour ago

KDEW 171453Z AUTO 20012KT 10SM OVC013 08/06 A2965 RMK AO2 RAE23 SLP041 P0001 60003 T00830061 58005
Observed
Oct-17 @ 14:53 UTC
Wind
  • 200° at 12 KTS
Visibility
10 SM
Flight Rules
MVFR
Cloud Levels
  • Overcast at 1,300' AGL
Temperature
C / 46°F
Dewpoint
C / 43°F
Humidity
87%
Altimeter
29.65" Hg
Pressure
1004.02 hPa
Current Rain
0.01"
Previous

2 hours ago

KDEW 171426Z AUTO 19011KT 10SM OVC015 08/07 A2965 RMK AO2 RAE23 P0001 T00830067
Observed
Oct-17 @ 14:26 UTC
Wind
  • 190° at 11 KTS
Visibility
10 SM
Flight Rules
MVFR
Cloud Levels
  • Overcast at 1,500' AGL
Temperature
C / 46°F
Dewpoint
C / 45°F
Humidity
93%
Altimeter
29.65" Hg
Pressure
1004.02 hPa
Current Rain
0.01"